Dhaka/Tezgaon, Bangladesh
Current Conditions -  °F | °C
As of 12:50 PM on Friday 24 Oct 2014 (Local Time) from VGHS Reporting Station
Haze Haze  
Wind Chill: 88°   Ceiling: Unl
Heat Index: 88°   Visibility: 3mi
Dew Point: 63°   Wind: 6mph
Humidity: 43%   Direction: 360°N
Pressure: 29.83"   Gusts: NA
Location:  23.45°N, 90.22°E
Report Text: VGHS 240650Z 36005KT 5000 HZ SCT020 31/17 Q1010 NOSIG
Loading
Personal Weather Stations






























Interactive Weather Map
Tropical Storm Tracking
New forecast layout! Learn more

10-Day Weather Forecast

Advertisements
Track Severe Weather on mobile